createdAt,value
2019-02-21T00:00:58.570Z,14.55
2019-02-21T00:03:26.755Z,13.32
2019-02-21T00:05:54.908Z,13.75
2019-02-21T00:08:23.170Z,13.80
2019-02-21T00:10:51.436Z,13.78
2019-02-21T00:13:19.697Z,14.40
2019-02-21T00:15:47.952Z,14.58
2019-02-21T00:18:16.237Z,14.47
2019-02-21T00:20:44.501Z,14.95
2019-02-21T00:23:12.776Z,15.88
2019-02-21T00:25:40.917Z,14.93
2019-02-21T00:28:09.355Z,13.32
2019-02-21T00:30:37.624Z,14.47
2019-02-21T00:33:05.780Z,14.75
2019-02-21T00:35:34.288Z,14.50
2019-02-21T00:38:02.448Z,10.88
2019-02-21T00:40:30.662Z,14.73
2019-02-21T00:42:58.835Z,14.63
2019-02-21T00:45:27.045Z,11.50
2019-02-21T00:47:55.204Z,13.60
2019-02-21T00:50:23.522Z,14.53
2019-02-21T00:52:51.888Z,14.65
2019-02-21T00:55:20.145Z,14.28
2019-02-21T00:57:48.380Z,13.72
2019-02-21T01:00:16.629Z,11.73
2019-02-21T01:02:44.952Z,13.70
2019-02-21T01:05:13.126Z,11.68
2019-02-21T01:07:41.266Z,14.63
2019-02-21T01:10:09.592Z,13.53
2019-02-21T01:12:37.838Z,13.30
2019-02-21T01:15:07.069Z,14.43
2019-02-21T01:17:35.452Z,10.80
2019-02-21T01:20:03.897Z,13.78
2019-02-21T01:22:32.112Z,12.90
2019-02-21T01:25:00.403Z,13.40
2019-02-21T01:27:28.574Z,12.55
2019-02-21T01:29:56.728Z,12.28
2019-02-21T01:32:24.942Z,13.83
2019-02-21T01:34:53.109Z,13.28
2019-02-21T01:37:21.295Z,13.90
2019-02-21T01:39:49.464Z,8.90
2019-02-21T01:42:17.639Z,12.88
2019-02-21T01:44:45.787Z,14.70
2019-02-21T01:47:13.989Z,10.63
2019-02-21T01:49:42.208Z,13.95
2019-02-21T01:52:10.443Z,13.03
2019-02-21T01:54:38.672Z,13.55
2019-02-21T01:57:06.828Z,14.53
2019-02-21T01:59:35.121Z,12.47
2019-02-21T02:02:03.302Z,9.28
2019-02-21T02:04:31.546Z,14.30
2019-02-21T02:06:59.898Z,12.45
2019-02-21T02:09:28.414Z,11.60
2019-02-21T02:11:56.664Z,10.08
2019-02-21T02:14:24.892Z,12.65
2019-02-21T02:16:53.178Z,12.20
2019-02-21T02:19:21.528Z,12.82
2019-02-21T02:21:49.879Z,11.95
2019-02-21T02:24:18.206Z,10.80
2019-02-21T02:26:46.437Z,11.63
2019-02-21T02:29:14.772Z,9.88
2019-02-21T02:31:42.922Z,11.08
2019-02-21T02:34:11.307Z,11.60
2019-02-21T02:36:39.565Z,10.10
2019-02-21T02:39:08.459Z,9.95
2019-02-21T02:41:36.762Z,10.50
2019-02-21T02:44:05.012Z,10.53
2019-02-21T02:46:33.300Z,7.78
2019-02-21T02:49:01.509Z,10.30
2019-02-21T02:51:29.651Z,9.78
2019-02-21T02:53:57.818Z,10.25
2019-02-21T02:56:26.102Z,10.15
2019-02-21T02:58:54.477Z,10.63
2019-02-21T03:01:34.323Z,10.75
2019-02-21T03:03:52.637Z,9.95
2019-02-21T03:06:20.862Z,12.10
2019-02-21T03:08:49.307Z,10.18
2019-02-21T03:11:17.570Z,10.00
2019-02-21T03:13:45.870Z,11.35
2019-02-21T03:16:14.028Z,10.60
2019-02-21T03:18:42.232Z,10.70
2019-02-21T03:21:10.368Z,10.60
2019-02-21T03:23:38.998Z,10.93
2019-02-21T03:26:07.191Z,10.32
2019-02-21T03:28:35.540Z,11.57
2019-02-21T03:31:03.711Z,10.43
2019-02-21T03:33:32.036Z,12.03
2019-02-21T03:36:00.253Z,11.80
2019-02-21T03:38:28.479Z,10.72
2019-02-21T03:40:56.670Z,10.75
2019-02-21T03:43:24.833Z,11.40
2019-02-21T03:45:52.997Z,10.65
2019-02-21T03:48:21.130Z,11.57
2019-02-21T03:50:49.327Z,11.03
2019-02-21T03:53:17.553Z,10.60
2019-02-21T03:55:45.702Z,11.00
2019-02-21T03:58:13.905Z,11.05
2019-02-21T04:00:42.158Z,11.83
2019-02-21T04:03:10.467Z,11.95
2019-02-21T04:05:38.710Z,12.10
2019-02-21T04:08:06.976Z,12.13
2019-02-21T04:10:35.271Z,12.03
2019-02-21T04:13:03.488Z,11.10
2019-02-21T04:15:31.685Z,11.57
2019-02-21T04:17:59.909Z,11.95
2019-02-21T04:20:28.227Z,12.47
2019-02-21T04:22:56.368Z,11.55
2019-02-21T04:25:24.551Z,12.33
2019-02-21T04:27:52.847Z,11.78
2019-02-21T04:30:21.157Z,11.48
2019-02-21T04:32:49.319Z,11.60
2019-02-21T04:35:17.586Z,12.03
2019-02-21T04:37:45.762Z,12.63
2019-02-21T04:40:14.035Z,12.82
2019-02-21T04:42:42.336Z,12.10
2019-02-21T04:45:10.565Z,12.33
2019-02-21T04:47:38.849Z,12.90
2019-02-21T04:50:07.144Z,11.25
2019-02-21T04:52:35.571Z,12.10
2019-02-21T04:55:03.837Z,12.37
2019-02-21T04:57:32.375Z,10.00
2019-02-21T05:00:00.593Z,12.35
2019-02-21T05:02:29.753Z,12.58
2019-02-21T05:04:58.088Z,11.90
2019-02-21T05:07:26.753Z,10.63
2019-02-21T05:09:58.270Z,10.78
2019-02-21T05:12:24.874Z,9.65
2019-02-21T05:14:53.438Z,10.63
2019-02-21T05:17:21.906Z,9.95
2019-02-21T05:19:50.101Z,12.33
2019-02-21T05:22:18.541Z,11.28
2019-02-21T05:24:46.776Z,11.03
2019-02-21T05:27:25.086Z,11.40
2019-02-21T05:29:53.430Z,12.35
2019-02-21T05:32:41.049Z,11.65
2019-02-21T05:35:14.376Z,11.38
2019-02-21T05:38:19.760Z,12.73
2019-02-21T05:41:09.832Z,11.60
2019-02-21T05:43:56.970Z,12.30
2019-02-21T05:46:41.709Z,11.97
2019-02-21T05:49:41.151Z,11.30
2019-02-21T05:52:20.535Z,11.88
2019-02-21T05:55:07.712Z,12.55
2019-02-21T05:57:57.629Z,12.33
2019-02-21T06:00:44.841Z,13.22
2019-02-21T06:03:35.620Z,12.45
2019-02-21T06:06:36.083Z,13.40
2019-02-21T06:09:15.027Z,11.75
2019-02-21T06:12:04.971Z,12.37
2019-02-21T06:14:54.944Z,14.07
2019-02-21T06:17:49.124Z,12.93
2019-02-21T06:20:45.328Z,12.85
2019-02-21T06:23:20.321Z,12.90
2019-02-21T06:26:10.636Z,13.62
2019-02-21T06:28:50.224Z,12.88
2019-02-21T06:31:20.564Z,12.35
2019-02-21T06:33:49.596Z,13.43
2019-02-21T06:36:17.944Z,10.50
2019-02-21T06:38:46.208Z,13.88
2019-02-21T06:41:14.385Z,14.25
2019-02-21T06:43:42.550Z,14.20
2019-02-21T06:46:13.518Z,14.33
2019-02-21T06:48:40.598Z,14.47
2019-02-21T06:51:08.847Z,14.05
2019-02-21T06:53:37.044Z,14.53
2019-02-21T06:56:05.216Z,14.25
2019-02-21T06:58:33.391Z,16.60
2019-02-21T07:01:01.649Z,13.98
2019-02-21T07:03:29.882Z,15.15
2019-02-21T07:05:58.174Z,14.90
2019-02-21T07:08:26.377Z,13.88
2019-02-21T07:11:05.436Z,13.95
2019-02-21T07:13:26.906Z,14.13
2019-02-21T07:15:54.543Z,14.93
2019-02-21T07:18:22.745Z,15.43
2019-02-21T07:20:50.879Z,13.55
2019-02-21T07:23:19.634Z,12.88
2019-02-21T07:25:50.785Z,15.25
2019-02-21T07:28:20.313Z,14.85
2019-02-21T07:30:49.605Z,14.18
2019-02-21T07:33:27.882Z,15.40
2019-02-21T07:35:47.784Z,14.98
2019-02-21T07:38:17.232Z,14.23
2019-02-21T07:40:45.624Z,14.10
2019-02-21T07:43:14.011Z,15.45
2019-02-21T07:45:42.226Z,13.58
2019-02-21T07:48:10.522Z,15.68
2019-02-21T07:50:38.708Z,14.53
2019-02-21T07:53:07.296Z,14.23
2019-02-21T07:55:35.497Z,14.35
2019-02-21T07:58:04.064Z,14.58
2019-02-21T08:00:32.542Z,16.62
2019-02-21T08:03:00.814Z,14.85
2019-02-21T08:05:29.154Z,14.23
2019-02-21T08:07:57.388Z,13.93
2019-02-21T08:10:33.085Z,12.95
2019-02-21T08:12:55.687Z,14.25
2019-02-21T08:15:23.941Z,13.72
2019-02-21T08:17:52.240Z,13.43
2019-02-21T08:20:20.673Z,13.35
2019-02-21T08:22:48.831Z,13.78
2019-02-21T08:25:19.119Z,12.37
2019-02-21T08:27:47.041Z,13.25
2019-02-21T08:30:16.219Z,12.78
2019-02-21T08:33:02.750Z,13.50
2019-02-21T08:35:31.091Z,12.25
2019-02-21T08:37:59.391Z,13.18
2019-02-21T08:40:27.743Z,12.30
2019-02-21T08:42:56.208Z,12.15
2019-02-21T08:45:24.623Z,12.68
2019-02-21T08:47:52.822Z,13.25
2019-02-21T08:50:22.250Z,12.45
2019-02-21T08:52:50.859Z,13.22
2019-02-21T08:55:19.392Z,12.90
2019-02-21T08:57:47.844Z,11.38
2019-02-21T09:00:16.642Z,10.85
2019-02-21T09:02:44.901Z,12.15
2019-02-21T09:05:13.602Z,10.30
2019-02-21T09:07:42.113Z,13.48
2019-02-21T09:10:11.225Z,11.75
2019-02-21T09:12:40.548Z,11.22
2019-02-21T09:15:11.279Z,12.37
2019-02-21T09:17:39.620Z,12.05
2019-02-21T09:20:08.772Z,11.88
2019-02-21T09:22:36.981Z,12.33
2019-02-21T09:25:05.867Z,11.28
2019-02-21T09:27:34.176Z,9.80
2019-02-21T09:30:05.047Z,8.88
2019-02-21T09:32:32.375Z,11.00
2019-02-21T09:35:00.712Z,11.45
2019-02-21T09:37:29.183Z,9.33
2019-02-21T09:39:57.380Z,11.60
2019-02-21T09:42:25.743Z,11.25
2019-02-21T09:44:54.101Z,9.63
2019-02-21T09:47:22.347Z,10.75
2019-02-21T09:49:50.844Z,10.23
2019-02-21T09:52:19.126Z,8.55
2019-02-21T09:54:47.693Z,12.25
2019-02-21T09:57:15.939Z,8.68
2019-02-21T09:59:44.211Z,9.20
2019-02-21T10:02:12.554Z,8.18
2019-02-21T10:04:40.743Z,8.95
2019-02-21T10:07:08.937Z,9.18
2019-02-21T10:09:37.228Z,8.68
2019-02-21T10:12:05.596Z,7.08
2019-02-21T10:14:33.740Z,8.35
2019-02-21T10:17:02.084Z,8.50
2019-02-21T10:19:30.305Z,7.25
2019-02-21T10:21:58.650Z,7.42
2019-02-21T10:24:26.960Z,7.65
2019-02-21T10:26:55.271Z,7.53
2019-02-21T10:29:23.484Z,7.75
2019-02-21T10:31:51.807Z,8.85
2019-02-21T10:34:21.852Z,7.95
2019-02-21T10:36:49.991Z,9.08
2019-02-21T10:39:18.357Z,6.95
2019-02-21T10:41:46.633Z,9.13
2019-02-21T10:44:15.006Z,9.70
2019-02-21T10:46:43.241Z,8.48
2019-02-21T10:49:11.427Z,7.67
2019-02-21T10:51:39.605Z,11.30
2019-02-21T10:54:07.832Z,8.85
2019-02-21T10:56:36.049Z,10.85
2019-02-21T10:59:04.422Z,9.98
2019-02-21T11:01:32.754Z,8.13
2019-02-21T11:04:00.979Z,10.88
2019-02-21T11:06:29.282Z,11.08
2019-02-21T11:08:57.483Z,10.45
2019-02-21T11:11:25.908Z,9.98
2019-02-21T11:13:55.498Z,12.18
2019-02-21T11:16:23.796Z,13.10
2019-02-21T11:18:52.044Z,7.87
2019-02-21T11:21:20.369Z,12.30
2019-02-21T11:23:48.758Z,13.32
2019-02-21T11:26:16.956Z,11.05
2019-02-21T11:28:47.135Z,14.55
2019-02-21T11:31:15.357Z,12.63
2019-02-21T11:33:43.774Z,11.70
2019-02-21T11:36:12.031Z,16.80
2019-02-21T11:39:01.021Z,12.82
2019-02-21T11:41:29.305Z,14.35
2019-02-21T11:43:57.561Z,13.20
2019-02-21T11:46:25.747Z,16.48
2019-02-21T11:48:54.006Z,13.30
2019-02-21T11:51:22.193Z,13.03
2019-02-21T11:53:50.423Z,12.45
2019-02-21T11:56:18.753Z,15.78
2019-02-21T11:58:47.075Z,16.32
2019-02-21T12:01:15.234Z,12.93
2019-02-21T12:03:43.449Z,15.78
2019-02-21T12:06:11.743Z,13.60
2019-02-21T12:08:39.962Z,15.05
2019-02-21T12:11:08.219Z,12.68
2019-02-21T12:13:36.535Z,14.47
2019-02-21T12:16:05.010Z,12.70
2019-02-21T12:18:33.216Z,14.20
2019-02-21T12:21:01.544Z,12.63
2019-02-21T12:23:29.795Z,15.63
2019-02-21T12:25:58.057Z,10.45
2019-02-21T12:28:26.281Z,11.80
2019-02-21T12:30:54.766Z,13.60
2019-02-21T12:33:22.973Z,13.65
2019-02-21T12:35:51.282Z,12.20
2019-02-21T12:38:19.493Z,11.83
2019-02-21T12:40:47.717Z,9.95
2019-02-21T12:43:16.016Z,14.15
2019-02-21T12:45:44.307Z,15.20
2019-02-21T12:48:12.479Z,13.28
2019-02-21T12:50:44.326Z,12.33
2019-02-21T12:53:10.563Z,14.63
2019-02-21T12:55:39.011Z,13.30
2019-02-21T12:58:07.239Z,11.63
2019-02-21T13:00:36.620Z,14.90
2019-02-21T13:03:05.548Z,15.05
2019-02-21T13:05:41.138Z,12.68
2019-02-21T13:08:03.671Z,14.87
2019-02-21T13:10:31.877Z,12.68
2019-02-21T13:13:00.122Z,15.63
2019-02-21T13:15:28.398Z,14.80
2019-02-21T13:17:56.583Z,14.40
2019-02-21T13:20:24.762Z,14.60
2019-02-21T13:22:53.010Z,12.82
2019-02-21T13:25:21.206Z,13.98
2019-02-21T13:27:49.461Z,14.47
2019-02-21T13:30:17.812Z,12.80
2019-02-21T13:32:46.138Z,15.28
2019-02-21T13:35:14.754Z,15.80
2019-02-21T13:37:43.102Z,12.90
2019-02-21T13:40:12.975Z,15.60
2019-02-21T13:42:41.200Z,13.98
2019-02-21T13:45:10.022Z,13.78
2019-02-21T13:47:39.219Z,13.00
2019-02-21T13:50:10.464Z,14.35
2019-02-21T13:52:38.644Z,14.40
2019-02-21T13:55:07.105Z,14.63
2019-02-21T13:57:35.347Z,15.48
2019-02-21T14:00:03.592Z,14.03
2019-02-21T14:02:31.861Z,16.57
2019-02-21T14:05:00.318Z,15.35
2019-02-21T14:07:28.473Z,12.85
2019-02-21T14:09:56.699Z,14.53
2019-02-21T14:12:26.461Z,13.22
2019-02-21T14:14:54.990Z,11.70
2019-02-21T14:17:23.308Z,11.30
2019-02-21T14:19:53.062Z,12.05
2019-02-21T14:22:21.403Z,9.08
2019-02-21T14:24:49.666Z,9.35
2019-02-21T14:27:17.862Z,8.00
2019-02-21T14:29:46.125Z,8.90
2019-02-21T14:32:14.791Z,9.25
2019-02-21T14:34:43.157Z,7.70
2019-02-21T14:37:11.565Z,7.45
2019-02-21T14:39:39.829Z,7.58
2019-02-21T14:42:08.060Z,7.45
2019-02-21T14:44:36.350Z,7.85
2019-02-21T14:47:04.821Z,8.55
2019-02-21T14:49:33.260Z,7.25
2019-02-21T14:52:02.032Z,8.33
2019-02-21T14:54:30.250Z,9.95
2019-02-21T14:56:58.458Z,7.50
2019-02-21T14:59:26.601Z,9.60
2019-02-21T15:01:54.856Z,8.95
2019-02-21T15:04:23.334Z,8.80
2019-02-21T15:06:51.532Z,7.67
2019-02-21T15:09:19.764Z,6.83
2019-02-21T15:11:48.131Z,8.20
2019-02-21T15:14:16.620Z,9.63
2019-02-21T15:16:45.117Z,7.92
2019-02-21T15:19:13.723Z,9.78
2019-02-21T15:21:42.263Z,10.50
2019-02-21T15:24:13.003Z,11.60
2019-02-21T15:26:40.617Z,10.85
2019-02-21T15:29:08.962Z,9.95
2019-02-21T15:31:56.282Z,10.45
2019-02-21T15:34:24.485Z,9.95
2019-02-21T15:36:52.770Z,13.90
2019-02-21T15:39:24.004Z,11.55
2019-02-21T15:41:52.226Z,10.43
2019-02-21T15:44:20.474Z,8.53
2019-02-21T15:46:48.666Z,12.45
2019-02-21T15:49:16.842Z,9.08
2019-02-21T15:51:45.212Z,10.78
2019-02-21T15:54:13.620Z,11.60
2019-02-21T15:56:41.984Z,10.72
2019-02-21T15:59:10.268Z,10.53
2019-02-21T16:01:47.040Z,11.83
2019-02-21T16:04:08.730Z,11.68
2019-02-21T16:06:38.013Z,7.55
2019-02-21T16:09:16.282Z,11.28
2019-02-21T16:11:39.806Z,11.88
2019-02-21T16:14:08.109Z,10.55
2019-02-21T16:16:36.321Z,11.85
2019-02-21T16:19:04.709Z,12.93
2019-02-21T16:21:33.054Z,11.88
2019-02-21T16:24:01.530Z,9.65
2019-02-21T16:26:29.855Z,9.40
2019-02-21T16:28:58.333Z,11.35
2019-02-21T16:31:26.637Z,11.65
2019-02-21T16:33:54.896Z,11.55
2019-02-21T16:36:23.554Z,11.78
2019-02-21T16:38:51.805Z,10.63
2019-02-21T16:41:20.104Z,12.98
2019-02-21T16:43:48.914Z,11.25
2019-02-21T16:46:17.173Z,12.88
2019-02-21T16:48:45.657Z,12.23
2019-02-21T16:51:14.062Z,11.28
2019-02-21T16:53:42.548Z,11.88
2019-02-21T16:56:13.384Z,13.58
2019-02-21T16:58:42.985Z,11.33
2019-02-21T17:01:11.183Z,12.43
2019-02-21T17:03:39.630Z,11.88
2019-02-21T17:06:08.160Z,11.75
2019-02-21T17:08:36.698Z,11.95
2019-02-21T17:11:05.346Z,10.98
2019-02-21T17:13:34.023Z,9.98
2019-02-21T17:16:02.273Z,10.50
2019-02-21T17:18:31.033Z,10.78
2019-02-21T17:21:00.091Z,11.48
2019-02-21T17:23:28.970Z,9.08
2019-02-21T17:25:57.705Z,11.40
2019-02-21T17:28:26.210Z,9.60
2019-02-21T17:30:55.275Z,10.03
2019-02-21T17:33:23.653Z,10.30
2019-02-21T17:35:52.259Z,9.15
2019-02-21T17:38:20.786Z,10.23
2019-02-21T17:40:49.179Z,8.30
2019-02-21T17:43:18.483Z,10.03
2019-02-21T17:45:47.786Z,9.33
2019-02-21T17:48:16.975Z,8.20
2019-02-21T17:50:45.941Z,9.75
2019-02-21T17:53:14.670Z,8.78
2019-02-21T17:55:43.464Z,9.90
2019-02-21T17:58:12.211Z,8.75
2019-02-21T18:00:41.235Z,9.30
2019-02-21T18:03:09.783Z,9.50
2019-02-21T18:05:38.602Z,9.83
2019-02-21T18:08:07.628Z,9.23
2019-02-21T18:10:36.524Z,6.80
2019-02-21T18:13:25.526Z,9.90
2019-02-21T18:15:54.217Z,9.15
2019-02-21T18:18:22.863Z,8.05
2019-02-21T18:20:51.657Z,8.63
2019-02-21T18:23:20.334Z,9.38
2019-02-21T18:25:52.768Z,7.72
2019-02-21T18:28:21.509Z,8.13
2019-02-21T18:30:50.503Z,8.88
2019-02-21T18:33:19.082Z,6.50
2019-02-21T18:35:48.018Z,7.25
2019-02-21T18:38:17.009Z,7.80
2019-02-21T18:40:45.867Z,8.03
2019-02-21T18:43:14.785Z,7.92
2019-02-21T18:45:44.001Z,8.60
2019-02-21T18:48:13.229Z,9.20
2019-02-21T18:50:43.137Z,8.33
2019-02-21T18:53:14.100Z,10.43
2019-02-21T18:55:44.576Z,8.70
2019-02-21T19:00:47.078Z,10.48
2019-02-21T19:03:15.960Z,10.48
2019-02-21T19:05:45.965Z,10.68
2019-02-21T19:08:16.620Z,9.58
2019-02-21T19:10:46.502Z,11.95
2019-02-21T19:13:16.899Z,11.35
2019-02-21T19:18:15.004Z,10.80
2019-02-21T19:20:46.588Z,11.13
2019-02-21T19:23:16.900Z,9.93
2019-02-21T19:25:47.942Z,11.50
2019-02-21T19:28:17.547Z,10.40
2019-02-21T19:30:51.227Z,10.90
2019-02-21T19:33:24.035Z,12.23
2019-02-21T19:35:53.508Z,14.93
2019-02-21T19:38:23.029Z,16.45
2019-02-21T19:40:51.902Z,16.32
2019-02-21T19:43:22.328Z,18.23
2019-02-21T19:45:51.529Z,15.88
2019-02-21T19:48:20.719Z,13.40
2019-02-21T19:50:50.390Z,11.65
2019-02-21T19:53:20.233Z,18.70
2019-02-21T19:55:49.452Z,18.02
2019-02-21T19:58:18.871Z,19.37
2019-02-21T20:00:49.637Z,20.65
2019-02-21T20:03:18.193Z,21.97
2019-02-21T20:05:47.836Z,22.15
2019-02-21T20:08:21.342Z,22.80
2019-02-21T20:10:48.122Z,20.37
2019-02-21T20:13:17.243Z,22.45
2019-02-21T20:15:46.421Z,21.80
2019-02-21T20:18:16.372Z,22.32
2019-02-21T20:20:45.442Z,24.20
2019-02-21T20:23:14.440Z,19.40
2019-02-21T20:25:43.670Z,21.07
2019-02-21T20:28:12.850Z,22.58
2019-02-21T20:30:41.366Z,27.50
2019-02-21T20:33:11.378Z,19.90
2019-02-21T20:35:41.352Z,25.05
2019-02-21T20:38:09.807Z,22.17
2019-02-21T20:40:39.318Z,23.20
2019-02-21T20:43:07.995Z,24.37
2019-02-21T20:45:37.198Z,31.00
2019-02-21T20:48:06.215Z,27.40
2019-02-21T20:50:35.515Z,26.62
2019-02-21T20:53:04.131Z,18.80
2019-02-21T20:55:43.016Z,26.70
2019-02-21T20:58:03.825Z,21.95
2019-02-21T21:00:32.755Z,28.10
2019-02-21T21:03:01.983Z,26.97
2019-02-21T21:05:31.471Z,31.00
2019-02-21T21:08:00.341Z,28.32
2019-02-21T21:10:28.675Z,25.55
2019-02-21T21:12:57.174Z,27.90
2019-02-21T21:15:25.786Z,26.87
2019-02-21T21:17:55.428Z,28.60
2019-02-21T21:20:25.990Z,28.53
2019-02-21T21:22:54.975Z,29.85
2019-02-21T21:25:23.766Z,21.85
2019-02-21T21:27:53.586Z,27.48
2019-02-21T21:30:22.700Z,26.87
2019-02-21T21:32:51.196Z,28.80
2019-02-21T21:35:19.796Z,30.92
2019-02-21T21:37:48.063Z,29.63
2019-02-21T21:40:16.850Z,30.27
2019-02-21T21:42:45.079Z,33.18
2019-02-21T21:48:09.435Z,28.30
2019-02-21T21:50:37.700Z,29.23
2019-02-21T21:53:06.159Z,34.78
2019-02-21T21:55:34.577Z,42.10
2019-02-21T21:58:03.026Z,43.05
2019-02-21T22:00:31.407Z,39.15
2019-02-21T22:02:59.625Z,32.20
2019-02-21T22:05:27.804Z,28.17
2019-02-21T22:07:55.992Z,32.45
2019-02-21T22:10:24.141Z,37.65
2019-02-21T22:12:52.408Z,35.00
2019-02-21T22:15:20.702Z,32.63
2019-02-21T22:17:48.970Z,23.65
2019-02-21T22:20:17.231Z,30.27
2019-02-21T22:22:45.513Z,33.20
2019-02-21T22:25:13.812Z,26.65
2019-02-21T22:27:42.049Z,32.60
2019-02-21T22:30:12.385Z,43.48
2019-02-21T22:32:40.558Z,30.25
2019-02-21T22:35:08.858Z,31.95
2019-02-21T22:37:37.146Z,39.90
2019-02-21T22:40:06.306Z,28.73
2019-02-21T22:42:34.560Z,39.83
2019-02-21T22:45:05.336Z,36.28
2019-02-21T22:47:32.817Z,35.13
2019-02-21T22:50:01.134Z,30.50
2019-02-21T22:52:29.446Z,33.30
2019-02-21T22:55:09.069Z,36.50
2019-02-21T22:57:27.816Z,31.25
2019-02-21T22:59:56.026Z,36.70
2019-02-21T23:02:24.898Z,27.70
2019-02-21T23:05:17.385Z,22.45
2019-02-21T23:08:13.091Z,23.92
2019-02-21T23:10:41.331Z,27.90
2019-02-21T23:13:09.531Z,29.92
2019-02-21T23:15:37.767Z,25.92
2019-02-21T23:18:05.902Z,26.40
2019-02-21T23:20:34.101Z,24.30
2019-02-21T23:23:02.330Z,30.02
2019-02-21T23:25:30.815Z,24.98
2019-02-21T23:27:58.954Z,25.35
2019-02-21T23:30:27.126Z,24.18
2019-02-21T23:32:55.314Z,27.40
2019-02-21T23:35:23.534Z,28.05
2019-02-21T23:37:51.770Z,23.52
2019-02-21T23:40:20.002Z,26.30
2019-02-21T23:42:48.118Z,28.35
2019-02-21T23:45:16.486Z,29.35
2019-02-21T23:47:49.732Z,29.32
2019-02-21T23:50:14.865Z,28.23
2019-02-21T23:52:43.287Z,24.65
2019-02-21T23:55:11.484Z,19.85
2019-02-21T23:57:39.750Z,20.27
